createdAt,value
2022-10-17T00:04:44.275Z,3.20
2022-10-17T00:09:51.159Z,3.70
2022-10-17T00:14:56.651Z,2.30
2022-10-17T00:20:00.886Z,2.60
2022-10-17T00:25:07.397Z,4.10
2022-10-17T00:30:13.801Z,3.00
2022-10-17T00:35:23.655Z,2.50
2022-10-17T00:40:29.623Z,1.70
2022-10-17T00:45:32.902Z,1.70
2022-10-17T00:50:49.398Z,2.80
2022-10-17T00:55:54.481Z,1.60
2022-10-17T01:01:01.038Z,1.80
2022-10-17T01:06:04.416Z,1.20
2022-10-17T01:11:31.985Z,2.10
2022-10-17T01:17:17.056Z,1.70
2022-10-17T01:22:57.069Z,1.80
2022-10-17T01:28:06.746Z,1.50
2022-10-17T01:33:35.678Z,1.90
2022-10-17T01:38:53.788Z,2.50
2022-10-17T01:44:06.004Z,4.30
2022-10-17T01:49:11.605Z,1.40
2022-10-17T01:54:19.904Z,3.40
2022-10-17T01:59:31.628Z,1.90
2022-10-17T02:04:35.715Z,1.90
2022-10-17T02:09:41.282Z,2.00
2022-10-17T02:15:09.224Z,1.30
2022-10-17T02:20:21.986Z,3.20
2022-10-17T02:25:42.602Z,4.10
2022-10-17T02:31:01.106Z,2.80
2022-10-17T02:36:12.099Z,3.70
2022-10-17T02:41:18.231Z,1.80
2022-10-17T02:46:23.816Z,3.50
2022-10-17T02:51:27.160Z,4.30
2022-10-17T02:56:36.238Z,2.20
2022-10-17T03:01:40.824Z,2.80
2022-10-17T03:06:46.605Z,2.40
2022-10-17T03:11:51.298Z,1.80
2022-10-17T03:16:59.301Z,2.50
2022-10-17T03:22:03.356Z,3.10
2022-10-17T03:27:09.265Z,3.50
2022-10-17T03:32:13.242Z,2.80
2022-10-17T03:37:16.573Z,3.10
2022-10-17T03:42:21.896Z,1.70
2022-10-17T03:47:25.391Z,1.20
2022-10-17T03:52:28.779Z,3.70
2022-10-17T03:57:32.482Z,2.80
2022-10-17T04:02:37.441Z,1.30
2022-10-17T04:07:41.082Z,3.20
2022-10-17T04:12:45.680Z,3.20
2022-10-17T04:17:54.313Z,2.00
2022-10-17T04:22:58.802Z,1.10
2022-10-17T04:28:02.235Z,2.70
2022-10-17T04:33:07.464Z,2.30
2022-10-17T04:38:10.845Z,3.20
2022-10-17T04:43:14.593Z,2.00
2022-10-17T04:48:21.401Z,3.20
2022-10-17T04:53:25.108Z,2.20
2022-10-17T04:58:30.471Z,2.70
2022-10-17T05:03:34.768Z,2.70
2022-10-17T05:08:38.905Z,1.90
2022-10-17T05:13:43.133Z,2.70
2022-10-17T05:18:53.024Z,3.30
2022-10-17T05:23:58.233Z,4.10
2022-10-17T05:29:03.312Z,2.10
2022-10-17T05:34:13.183Z,2.50
2022-10-17T05:39:20.115Z,1.90
2022-10-17T05:44:24.410Z,2.00
2022-10-17T05:49:45.988Z,3.10
2022-10-17T05:54:53.338Z,3.30
2022-10-17T06:00:01.354Z,2.30
2022-10-17T06:05:19.401Z,2.90
2022-10-17T06:10:23.907Z,3.10
2022-10-17T06:15:30.274Z,2.40
2022-10-17T06:20:45.357Z,3.50
2022-10-17T06:25:58.239Z,2.90
2022-10-17T06:31:13.518Z,2.40
2022-10-17T06:36:19.543Z,3.70
2022-10-17T06:41:26.551Z,2.90
2022-10-17T06:46:33.509Z,3.00
2022-10-17T06:51:40.364Z,3.40
2022-10-17T06:56:47.636Z,2.90
2022-10-17T07:02:13.052Z,3.20
2022-10-17T07:07:19.678Z,3.90
2022-10-17T07:12:24.585Z,3.30
2022-10-17T07:17:28.105Z,4.10
2022-10-17T07:22:34.439Z,3.60
2022-10-17T07:27:38.434Z,3.50
2022-10-17T07:32:43.323Z,3.40
2022-10-17T07:37:46.917Z,2.30
2022-10-17T07:42:52.949Z,2.10
2022-10-17T07:47:58.233Z,2.70
2022-10-17T07:53:01.719Z,2.80
2022-10-17T07:58:05.003Z,3.80
2022-10-17T08:03:08.946Z,2.80
2022-10-17T08:08:17.340Z,1.20
2022-10-17T08:13:21.545Z,3.80
2022-10-17T08:18:25.531Z,2.10
2022-10-17T08:23:31.686Z,1.90
2022-10-17T08:28:37.308Z,1.90
2022-10-17T08:33:41.944Z,3.00
2022-10-17T08:38:50.331Z,3.00
2022-10-17T08:44:23.215Z,3.10
2022-10-17T08:49:53.350Z,2.90
2022-10-17T08:54:57.088Z,2.00
2022-10-17T09:00:00.558Z,1.80
2022-10-17T09:05:10.553Z,2.20
2022-10-17T09:10:24.483Z,1.50
2022-10-17T09:15:58.541Z,2.70
2022-10-17T09:21:10.857Z,3.00
2022-10-17T09:26:17.215Z,2.20
2022-10-17T09:31:49.983Z,2.20
2022-10-17T09:36:54.131Z,1.70
2022-10-17T09:42:02.376Z,1.50
2022-10-17T09:47:42.030Z,2.60
2022-10-17T09:52:50.987Z,3.00
2022-10-17T09:58:00.904Z,2.10
2022-10-17T10:03:22.406Z,2.70
2022-10-17T10:08:35.675Z,2.30
2022-10-17T10:13:38.978Z,2.50
2022-10-17T10:18:42.547Z,1.90
2022-10-17T10:24:02.661Z,2.90
2022-10-17T10:29:31.104Z,2.10
2022-10-17T10:34:36.241Z,1.80
2022-10-17T10:39:58.113Z,1.60
2022-10-17T10:45:43.289Z,1.50
2022-10-17T10:51:06.412Z,1.40
2022-10-17T10:56:21.956Z,1.90
2022-10-17T11:01:35.848Z,1.70
2022-10-17T11:06:42.880Z,2.00
2022-10-17T11:12:02.243Z,1.60
2022-10-17T11:17:11.456Z,0.70
2022-10-17T11:22:39.773Z,1.80
2022-10-17T11:27:43.067Z,1.40
2022-10-17T11:33:01.938Z,0.60
2022-10-17T11:38:19.290Z,1.20
2022-10-17T11:43:44.746Z,1.90
2022-10-17T11:49:01.884Z,1.40
2022-10-17T11:54:11.234Z,0.90
2022-10-17T11:59:41.411Z,1.10
2022-10-17T12:04:55.028Z,2.30
2022-10-17T12:10:17.166Z,2.30
2022-10-17T12:15:26.873Z,1.60
2022-10-17T12:20:32.487Z,1.60
2022-10-17T12:30:58.717Z,2.00
2022-10-17T12:36:17.484Z,2.60
2022-10-17T12:41:39.361Z,2.40
2022-10-17T12:47:04.299Z,1.40
2022-10-17T12:52:32.787Z,1.90
2022-10-17T12:57:42.871Z,0.70
2022-10-17T13:02:51.965Z,1.80
2022-10-17T13:07:56.846Z,3.30
2022-10-17T13:13:08.984Z,1.50
2022-10-17T13:18:19.614Z,1.30
2022-10-17T13:23:27.002Z,0.90
2022-10-17T13:28:39.678Z,1.50
2022-10-17T13:33:43.209Z,1.30
2022-10-17T13:38:56.225Z,1.70
2022-10-17T13:44:04.335Z,2.00
2022-10-17T13:49:25.976Z,2.80
2022-10-17T13:59:41.767Z,1.40
2022-10-17T14:05:15.271Z,1.60
2022-10-17T14:10:37.239Z,1.20
2022-10-17T14:15:46.128Z,1.70
2022-10-17T14:26:22.918Z,2.60
2022-10-17T14:31:34.547Z,1.60
2022-10-17T14:41:46.089Z,1.70
2022-10-17T14:46:54.720Z,1.80
2022-10-17T14:52:19.256Z,1.80
2022-10-17T14:57:35.744Z,1.30
2022-10-17T15:02:47.277Z,2.10
2022-10-17T15:07:53.779Z,1.60
2022-10-17T15:13:26.072Z,1.40
2022-10-17T15:18:26.936Z,2.00
2022-10-17T15:23:30.721Z,1.50
2022-10-17T15:28:36.448Z,1.40
2022-10-17T15:33:41.257Z,1.40
2022-10-17T15:38:48.742Z,2.50
2022-10-17T15:43:56.375Z,1.10
2022-10-17T15:49:07.760Z,1.80
2022-10-17T15:59:26.504Z,1.10
2022-10-17T16:04:41.081Z,0.90
2022-10-17T16:09:46.586Z,1.00
2022-10-17T16:14:51.438Z,1.50
2022-10-17T16:20:04.667Z,1.10
2022-10-17T16:25:33.747Z,0.60
2022-10-17T16:30:58.839Z,0.60
2022-10-17T16:36:07.138Z,0.90
2022-10-17T16:41:33.763Z,1.10
2022-10-17T16:46:45.232Z,0.50
2022-10-17T16:52:01.130Z,0.80
2022-10-17T16:57:05.322Z,0.70
2022-10-17T17:02:30.208Z,0.60
2022-10-17T17:07:49.602Z,0.60
2022-10-17T17:13:15.095Z,0.60
2022-10-17T17:18:43.265Z,1.00
2022-10-17T17:23:58.821Z,0.60
2022-10-17T17:29:18.084Z,0.80
2022-10-17T17:34:27.338Z,0.50
2022-10-17T17:39:34.513Z,0.70
2022-10-17T17:44:39.908Z,0.70
2022-10-17T17:49:43.385Z,0.40
2022-10-17T17:54:49.747Z,0.90
2022-10-17T17:59:56.800Z,1.20
2022-10-17T18:05:01.687Z,2.00
2022-10-17T18:15:22.206Z,0.80
2022-10-17T18:20:28.189Z,0.80
2022-10-17T18:25:40.031Z,0.70
2022-10-17T18:30:44.389Z,0.90
2022-10-17T18:35:49.552Z,0.60
2022-10-17T18:41:03.248Z,0.30
2022-10-17T18:46:15.092Z,0.40
2022-10-17T18:51:26.787Z,0.20
2022-10-17T18:56:33.583Z,1.30
2022-10-17T19:01:36.987Z,0.30
2022-10-17T19:06:43.382Z,0.70
2022-10-17T19:11:47.093Z,1.50
2022-10-17T19:16:51.953Z,0.30
2022-10-17T19:21:55.566Z,0.90
2022-10-17T19:27:05.604Z,0.80
2022-10-17T19:32:15.629Z,0.40
2022-10-17T19:37:21.910Z,1.00
2022-10-17T19:42:26.330Z,0.90
2022-10-17T19:47:29.786Z,0.50
2022-10-17T19:52:47.679Z,0.50
2022-10-17T19:57:52.714Z,0.80
2022-10-17T20:02:57.146Z,1.20
2022-10-17T20:08:03.791Z,0.50
2022-10-17T20:13:10.179Z,0.90
2022-10-17T20:18:13.454Z,0.70
2022-10-17T20:23:17.298Z,0.90
2022-10-17T20:28:21.147Z,0.70
2022-10-17T20:33:31.733Z,0.40
2022-10-17T20:38:40.287Z,0.50
2022-10-17T20:43:46.226Z,0.50
2022-10-17T20:48:56.159Z,1.30
2022-10-17T20:54:04.406Z,0.20
2022-10-17T20:59:13.409Z,0.80
2022-10-17T21:09:42.760Z,0.70
2022-10-17T21:14:47.481Z,0.10
2022-10-17T21:20:00.220Z,0.30
2022-10-17T21:25:04.288Z,1.00
2022-10-17T21:30:23.290Z,0.90
2022-10-17T21:35:33.912Z,0.80
2022-10-17T21:40:55.324Z,1.20
2022-10-17T21:46:20.896Z,0.60
2022-10-17T21:51:40.264Z,0.70
2022-10-17T21:56:54.536Z,1.10
2022-10-17T22:02:01.724Z,0.10
2022-10-17T22:07:11.822Z,0.50
2022-10-17T22:12:15.473Z,1.20
2022-10-17T22:17:18.787Z,0.70
2022-10-17T22:22:22.507Z,1.40
2022-10-17T22:27:25.861Z,1.10
2022-10-17T22:32:29.181Z,0.60
2022-10-17T22:37:32.741Z,0.50
2022-10-17T22:42:36.938Z,0.40
2022-10-17T22:47:40.415Z,0.20
2022-10-17T22:52:43.605Z,0.40
2022-10-17T22:57:47.437Z,1.00
2022-10-17T23:02:54.417Z,0.80
2022-10-17T23:07:57.793Z,1.30
2022-10-17T23:13:01.087Z,1.10
2022-10-17T23:18:07.044Z,0.60
2022-10-17T23:23:10.996Z,1.70
2022-10-17T23:28:21.521Z,1.50
2022-10-17T23:33:25.055Z,0.60
2022-10-17T23:38:28.378Z,0.60
2022-10-17T23:43:32.049Z,0.60
2022-10-17T23:48:35.607Z,1.20
2022-10-17T23:53:39.675Z,0.80
2022-10-17T23:58:43.023Z,1.20
